Felker Army Air Field Fort Eustis US
ICAO: KFAF
IATA: FAF
Category: Medium
Scheduled Services: No

Elevation: 12 ft
TransAlt. 18000 ft.

Airport Communications:
NORFOLK APP/DEP:125.7
CTAF:126.3
GND:121.35
BASE OPS:134.1
PMSV METRO:134.1
TWR:126.3

KFAF Zoom In..

Runways:

(A) RW 14 length 3025 ft width 75 ft
---- / hdg 139

(B) RW 32 length 3025 ft width 75 ft
---- / hdg 319

Location; KFAF
Day. 23 / Time. 09.45 Zulu
* Altimeter: 29.89
* Temperature: 24° c. 75.2°f.
* Wind from: 150° Speed 07 kn.
Dewpoint: 22° c.
Visibility: 10 Statute Miles.
Clouds: Broken 1100 ft.
Clouds: Overcast 3800 ft.
Clouds: Broken 00 ft.
Clouds: Overcast 00 ft.

KFAF 230945Z AUTO 15007KT 10SM BKN011 OVC038 24/22 A2989 RMK AO2 RAB28E45 BKN V OVC SLP125 $


Wind From 150°
Speed 07 kn.

 
 
jpsmedia.com for Web Design worldairports.se 2018   terms of use